Terminal Aerodrome Forecast
Issued by NWS Raleigh/Durham, NC

Home | Current Version | Previous Version | Text Only | Print | Product List | Glossary On
Versions: 1 2 3 4 5 6 7 8 9 10 11 12 13 14 15 16 17 18 19 20 21 22 23 24 25 26 27 28 29 30 31 32 33 34 35 36
000
FTUS42 KRAH 141740
TAFFAY
TAF
KFAY 141740Z 1418/1518 04007KT P6SM BKN150
     FM150200 12005KT P6SM OVC060
     FM150500 08004KT P6SM SCT025 OVC050
      TEMPO 1505/1507 6SM -SNPL BKN020 OVC050
     FM150700 06005KT 5SM -FZRA BR OVC015=

USA.gov is the U.S. government's official web portal to all federal, state and local government web resources and services.